Daikoku — JD3247 — position and weather

sailwx.info

Track history (hours):
 
Tides and Currents Weather Stations Pressure Air Temp Water Temp Dewpoint Dewpoint Depression Visibility Wind Speed Wind Dir Waves Ship Positions

Daikoku

Last reported at 2015-Jul-04 08:19 UTC. Time now 2015-Jul-05 12:50 UTC.
Position N 34°36' E 134°54'.

Length 95 m; draft 3.6 m.

Type: Cargo ship. MMSI: 431003009.

Date/timePositionNaut miles runAvg speedWind from/ knotsBaromVisibWave heightAir tempDewpointWater temp
2015-Jul-04 08:19N 34°36' E 134°54'7 9.4
2015-Jul-04 07:33N 34°36' E 135°03'1110.7
2015-Jul-04 06:33N 34°37' E 135°16'3 2.7
2015-Jul-04 05:31N 34°40' E 135°14'1 0.8
2015-Jul-04 04:33N 34°39' E 135°15'0 0.1
2015-Jul-04 03:30N 34°39' E 135°15'0 0.0
2015-Jul-04 02:30N 34°39' E 135°15'0 0.0
2015-Jul-04 01:33N 34°39' E 135°15'2 2.4
2015-Jul-04 00:32N 34°41' E 135°17'0 0.0
2015-Jul-03 23:27N 34°41' E 135°17'3 3.8
2015-Jul-03 22:33N 34°37' E 135°17'6 6.0
2015-Jul-03 21:33N 34°35' E 135°10'1110.9
2015-Jul-03 20:32N 34°36' E 134°57'23112.1
2015-Jul-03 01:25N 33°53' E 130°22'1112.7
2015-Jul-03 00:33N 33°43' E 130°16'8 7.7
2015-Jul-02 23:33N 33°39' E 130°25'0 0.0
2015-Jul-02 22:33N 33°39' E 130°25'0 0.3
2015-Jul-02 21:33N 33°39' E 130°24'0 0.1
2015-Jul-02 20:33N 33°39' E 130°24'0 0.0
2015-Jul-02 19:30N 33°39' E 130°24'0 0.0
2015-Jul-02 18:33N 33°39' E 130°24'0 0.0
2015-Jul-02 17:33N 33°39' E 130°24'0 0.0
2015-Jul-02 16:33N 33°39' E 130°24'0 0.0
2015-Jul-02 15:33N 33°39' E 130°24'0 0.0
2015-Jul-02 14:27N 33°39' E 130°24'0 0.0
2015-Jul-02 13:33N 33°39' E 130°24'0 0.0
2015-Jul-02 12:33N 33°39' E 130°24'0 0.0
2015-Jul-02 11:33N 33°39' E 130°24'0 0.4
2015-Jul-02 10:33N 33°39' E 130°24'8 7.5
2015-Jul-02 09:33N 33°44' E 130°17'  
Track history (hours):
 
Tides and Currents Weather Stations Pressure Air Temp Water Temp Dewpoint Dewpoint Depression Visibility Wind Speed Wind Dir Waves Ship Positions

Daikoku

Last reported at 2015-Jul-04 08:19 UTC. Time now 2015-Jul-05 12:50 UTC.
Position N 34°36' E 134°54'.

Length 95 m; draft 3.6 m.

Type: Cargo ship. MMSI: 431003009.

Date/timePositionNaut miles runAvg speedWind from/ knotsBaromVisibWave heightAir tempDewpointWater temp
2015-Jul-04 08:19N 34°36' E 134°54'7 9.4
2015-Jul-04 07:33N 34°36' E 135°03'1110.7
2015-Jul-04 06:33N 34°37' E 135°16'3 2.7
2015-Jul-04 05:31N 34°40' E 135°14'1 0.8
2015-Jul-04 04:33N 34°39' E 135°15'0 0.1
2015-Jul-04 03:30N 34°39' E 135°15'0 0.0
2015-Jul-04 02:30N 34°39' E 135°15'0 0.0
2015-Jul-04 01:33N 34°39' E 135°15'2 2.4
2015-Jul-04 00:32N 34°41' E 135°17'0 0.0
2015-Jul-03 23:27N 34°41' E 135°17'3 3.8
2015-Jul-03 22:33N 34°37' E 135°17'6 6.0
2015-Jul-03 21:33N 34°35' E 135°10'1110.9
2015-Jul-03 20:32N 34°36' E 134°57'23112.1
2015-Jul-03 01:25N 33°53' E 130°22'1112.7
2015-Jul-03 00:33N 33°43' E 130°16'8 7.7
2015-Jul-02 23:33N 33°39' E 130°25'0 0.0
2015-Jul-02 22:33N 33°39' E 130°25'0 0.3
2015-Jul-02 21:33N 33°39' E 130°24'0 0.1
2015-Jul-02 20:33N 33°39' E 130°24'0 0.0
2015-Jul-02 19:30N 33°39' E 130°24'0 0.0
2015-Jul-02 18:33N 33°39' E 130°24'0 0.0
2015-Jul-02 17:33N 33°39' E 130°24'0 0.0
2015-Jul-02 16:33N 33°39' E 130°24'0 0.0
2015-Jul-02 15:33N 33°39' E 130°24'0 0.0
2015-Jul-02 14:27N 33°39' E 130°24'0 0.0
2015-Jul-02 13:33N 33°39' E 130°24'0 0.0
2015-Jul-02 12:33N 33°39' E 130°24'0 0.0
2015-Jul-02 11:33N 33°39' E 130°24'0 0.4
2015-Jul-02 10:33N 33°39' E 130°24'8 7.5
2015-Jul-02 09:33N 33°44' E 130°17'  

Dump ship's entire track history